Time,TemperatureF,DewpointF,PressureIn,WindDirection,WindDirectionDegrees,WindSpeedMPH,WindSpeedGustMPH,Humidity,HourlyPrecipIn,Conditions,Clouds,dailyrainin,SoftwareType,DateUTC
2013-08-17 09:42:00,60.0,59.0,25.83,ESE,121,0.0,1.0,97,0.00,,,0.00,,2013-08-17 16:42:00,
2013-08-17 09:53:00,60.0,59.0,25.83,ESE,121,0.0,1.0,97,0.00,,,0.00,,2013-08-17 16:53:00,
2013-08-17 10:12:00,63.0,60.0,25.83,North,351,1.0,3.0,91,0.00,,,0.00,,2013-08-17 17:12:00,
2013-08-17 10:23:00,63.0,60.0,25.83,North,351,1.0,3.0,91,0.00,,,0.00,,2013-08-17 17:23:00,
2013-08-17 10:52:00,66.0,62.0,25.83,North,356,2.0,7.0,88,0.00,,,0.00,,2013-08-17 17:52:00,
2013-08-17 11:02:00,66.0,62.0,25.83,North,356,2.0,7.0,88,0.00,,,0.00,,2013-08-17 18:02:00,
2013-08-17 11:11:00,66.0,62.0,25.83,North,356,2.0,7.0,88,0.00,,,0.00,,2013-08-17 18:11:00,
2013-08-17 11:21:00,65.0,61.0,25.83,NW,313,4.0,10.0,86,0.00,,,0.00,,2013-08-17 18:21:00,
2013-08-17 11:42:00,66.0,62.0,25.83,WNW,296,4.0,9.0,87,0.00,,,0.00,,2013-08-17 18:42:00,
2013-08-17 11:52:00,66.0,62.0,25.83,WNW,296,4.0,9.0,87,0.00,,,0.00,,2013-08-17 18:52:00,
2013-08-17 12:11:00,66.0,61.0,25.83,NW,312,6.0,11.0,84,0.00,,,0.00,,2013-08-17 19:11:00,
2013-08-17 12:21:00,68.0,61.0,25.83,WNW,303,4.0,12.0,79,0.00,,,0.00,,2013-08-17 19:21:00,
2013-08-17 12:52:00,68.0,61.0,25.83,NW,326,4.0,12.0,79,0.00,,,0.00,,2013-08-17 19:52:00,
2013-08-17 13:11:00,67.0,61.0,25.83,NNW,333,4.0,12.0,80,0.00,,,0.00,,2013-08-17 20:11:00,
2013-08-17 13:21:00,67.0,61.0,25.83,North,357,4.0,11.0,82,0.00,,,0.00,,2013-08-17 20:21:00,
2013-08-17 13:51:00,68.0,62.0,25.83,North,358,3.0,9.0,82,0.00,,,0.00,,2013-08-17 20:51:00,
2013-08-17 14:11:00,67.0,62.0,25.83,West,274,5.0,14.0,83,0.00,,,0.00,,2013-08-17 21:11:00,
2013-08-17 14:21:00,67.0,62.0,25.83,West,274,5.0,14.0,83,0.00,,,0.00,,2013-08-17 21:21:00,
2013-08-17 14:42:00,66.0,61.0,25.83,NW,304,6.0,11.0,85,0.00,,,0.00,,2013-08-17 21:42:00,
2013-08-17 14:53:00,66.0,61.0,25.83,NW,304,6.0,11.0,85,0.00,,,0.00,,2013-08-17 21:53:00,
2013-08-17 15:13:00,67.0,62.0,25.83,NW,308,4.0,15.0,83,0.00,,,0.00,,2013-08-17 22:13:00,
2013-08-17 15:22:00,66.0,62.0,25.83,WNW,300,5.0,12.0,86,0.00,,,0.00,,2013-08-17 22:22:00,
2013-08-17 15:52:00,67.0,62.0,25.83,NW,315,5.0,10.0,85,0.00,,,0.00,,2013-08-17 22:52:00,
2013-08-17 16:22:00,65.0,61.0,25.83,NW,305,4.0,13.0,87,0.00,,,0.00,,2013-08-17 23:22:00,
2013-08-17 16:32:00,65.0,61.0,25.83,NW,305,4.0,13.0,87,0.00,,,0.00,,2013-08-17 23:32:00,
2013-08-17 16:42:00,65.0,61.0,25.83,NW,305,4.0,13.0,87,0.00,,,0.00,,2013-08-17 23:42:00,
2013-08-17 16:51:00,65.0,61.0,25.83,NW,305,4.0,13.0,87,0.00,,,0.00,,2013-08-17 23:51:00,
2013-08-17 17:42:00,65.0,61.0,25.83,NW,320,6.0,12.0,86,0.00,,,0.00,,2013-08-18 00:42:00,
2013-08-17 17:52:00,65.0,61.0,25.83,NNW,332,5.0,13.0,86,0.00,,,0.00,,2013-08-18 00:52:00,
2013-08-17 18:01:00,65.0,61.0,25.83,NNW,332,5.0,13.0,86,0.00,,,0.00,,2013-08-18 01:01:00,
2013-08-17 18:11:00,65.0,61.0,25.83,NNW,332,5.0,13.0,86,0.00,,,0.00,,2013-08-18 01:11:00,
2013-08-17 18:21:00,64.0,61.0,25.83,WNW,291,4.0,10.0,89,0.00,,,0.00,,2013-08-18 01:21:00,
2013-08-17 18:41:00,63.0,60.0,25.83,NNW,330,6.0,12.0,91,0.00,,,0.00,,2013-08-18 01:41:00,
2013-08-17 18:52:00,63.0,60.0,25.83,NW,320,3.0,11.0,91,0.00,,,0.00,,2013-08-18 01:52:00,
2013-08-17 19:11:00,61.0,59.0,25.83,NW,318,4.0,13.0,94,0.00,,,0.00,,2013-08-18 02:11:00,
2013-08-17 19:21:00,61.0,59.0,25.83,NW,320,4.0,10.0,94,0.00,,,0.00,,2013-08-18 02:21:00,
2013-08-17 19:32:00,61.0,59.0,25.83,NW,320,4.0,10.0,94,0.00,,,0.00,,2013-08-18 02:32:00,
2013-08-17 19:41:00,61.0,59.0,25.83,NW,320,4.0,10.0,94,0.00,,,0.00,,2013-08-18 02:41:00,
2013-08-17 19:52:00,60.0,59.0,25.83,NW,324,4.0,9.0,96,0.00,,,0.00,,2013-08-18 02:52:00,
2013-08-17 20:02:00,60.0,59.0,25.83,NW,324,4.0,9.0,96,0.00,,,0.00,,2013-08-18 03:02:00,
2013-08-17 20:11:00,60.0,59.0,25.83,NW,324,4.0,9.0,96,0.00,,,0.00,,2013-08-18 03:11:00,
2013-08-17 20:21:00,60.0,59.0,25.83,NW,324,4.0,9.0,96,0.00,,,0.00,,2013-08-18 03:21:00,